Hoopers Valley, New York
Current Conditions -  °F | °C
As of 6:53 PM on Thursday 27 Nov 2014 (Local Time) from KBGM Reporting Station
Overcast Overcast  
Wind Chill: 17°   Ceiling: 5500
Heat Index: 24°   Visibility: 10mi
Dew Point: 22°   Wind: 6mph
Humidity: 91%   Direction: 270°W
Pressure: 30"   Gusts: NA
Location:  42.0389°N, 76.3138°W
Report Text: KBGM 272353Z 27005KT 10SM OVC055 M04/M06 A3000 RMK AO2 SLP178 60000 T10441056 11022 21044 51009 $
Loading
Personal Weather Stations






























Interactive Weather Map New forecast layout! Learn more

10-Day Weather Forecast

Advertisements
Track Severe Weather on mobile